sensor_id;sensor_type;location;lat;lon;timestamp;P1;durP1;ratioP1;P2;durP2;ratioP2
66353;SDS011;53150;48.296;16.452;2023-02-23T00:02:08;21.60;;;11.02;;
66353;SDS011;53150;48.296;16.452;2023-02-23T00:07:24;16.15;;;9.48;;
66353;SDS011;53150;48.296;16.452;2023-02-23T00:10:07;17.83;;;9.75;;
66353;SDS011;53150;48.296;16.452;2023-02-23T00:12:44;16.23;;;8.38;;
66353;SDS011;53150;48.296;16.452;2023-02-23T00:15:17;18.40;;;9.23;;
66353;SDS011;53150;48.296;16.452;2023-02-23T00:17:54;16.50;;;9.20;;
66353;SDS011;53150;48.296;16.452;2023-02-23T00:20:21;20.40;;;10.85;;
66353;SDS011;53150;48.296;16.452;2023-02-23T00:23:01;15.50;;;9.70;;
66353;SDS011;53150;48.296;16.452;2023-02-23T00:25:52;16.48;;;9.35;;
66353;SDS011;53150;48.296;16.452;2023-02-23T00:28:25;15.50;;;8.73;;
66353;SDS011;53150;48.296;16.452;2023-02-23T00:30:55;15.52;;;9.65;;
66353;SDS011;53150;48.296;16.452;2023-02-23T00:33:21;17.30;;;9.40;;
66353;SDS011;53150;48.296;16.452;2023-02-23T00:35:48;19.35;;;10.05;;
66353;SDS011;53150;48.296;16.452;2023-02-23T00:38:16;14.63;;;8.65;;
66353;SDS011;53150;48.296;16.452;2023-02-23T00:40:44;15.95;;;9.55;;
66353;SDS011;53150;48.296;16.452;2023-02-23T00:43:26;15.20;;;9.07;;
66353;SDS011;53150;48.296;16.452;2023-02-23T00:45:57;16.85;;;9.48;;
66353;SDS011;53150;48.296;16.452;2023-02-23T00:48:29;17.13;;;9.60;;
66353;SDS011;53150;48.296;16.452;2023-02-23T00:51:05;15.88;;;8.90;;
66353;SDS011;53150;48.296;16.452;2023-02-23T00:53:35;16.45;;;8.85;;
66353;SDS011;53150;48.296;16.452;2023-02-23T00:59:05;15.40;;;8.55;;
66353;SDS011;53150;48.296;16.452;2023-02-23T01:01:32;19.23;;;9.38;;
66353;SDS011;53150;48.296;16.452;2023-02-23T01:04:00;16.02;;;9.70;;
66353;SDS011;53150;48.296;16.452;2023-02-23T01:06:28;18.90;;;10.15;;
66353;SDS011;53150;48.296;16.452;2023-02-23T01:11:34;14.20;;;8.27;;
66353;SDS011;53150;48.296;16.452;2023-02-23T01:14:03;12.95;;;8.05;;
66353;SDS011;53150;48.296;16.452;2023-02-23T01:16:30;15.25;;;8.05;;
66353;SDS011;53150;48.296;16.452;2023-02-23T01:19:02;16.95;;;9.82;;
66353;SDS011;53150;48.296;16.452;2023-02-23T01:21:30;14.52;;;8.82;;
66353;SDS011;53150;48.296;16.452;2023-02-23T01:24:03;15.38;;;8.38;;
66353;SDS011;53150;48.296;16.452;2023-02-23T01:26:32;16.95;;;9.05;;
66353;SDS011;53150;48.296;16.452;2023-02-23T01:29:07;16.27;;;9.10;;
66353;SDS011;53150;48.296;16.452;2023-02-23T01:31:45;16.73;;;9.13;;
66353;SDS011;53150;48.296;16.452;2023-02-23T01:34:12;14.82;;;7.50;;
66353;SDS011;53150;48.296;16.452;2023-02-23T01:36:39;14.82;;;8.48;;
66353;SDS011;53150;48.296;16.452;2023-02-23T01:39:16;17.05;;;10.35;;
66353;SDS011;53150;48.296;16.452;2023-02-23T01:42:05;17.60;;;8.73;;
66353;SDS011;53150;48.296;16.452;2023-02-23T01:47:06;15.38;;;8.48;;
66353;SDS011;53150;48.296;16.452;2023-02-23T01:49:32;14.25;;;8.05;;
66353;SDS011;53150;48.296;16.452;2023-02-23T01:52:02;14.52;;;8.10;;
66353;SDS011;53150;48.296;16.452;2023-02-23T01:54:40;15.53;;;8.73;;
66353;SDS011;53150;48.296;16.452;2023-02-23T01:57:12;16.05;;;7.88;;
66353;SDS011;53150;48.296;16.452;2023-02-23T01:59:40;17.27;;;8.35;;
66353;SDS011;53150;48.296;16.452;2023-02-23T02:02:10;15.75;;;8.38;;
66353;SDS011;53150;48.296;16.452;2023-02-23T02:04:38;14.70;;;8.73;;
66353;SDS011;53150;48.296;16.452;2023-02-23T02:07:31;13.43;;;7.60;;
66353;SDS011;53150;48.296;16.452;2023-02-23T02:10:02;14.32;;;8.43;;
66353;SDS011;53150;48.296;16.452;2023-02-23T02:12:47;14.15;;;8.45;;
66353;SDS011;53150;48.296;16.452;2023-02-23T02:15:22;14.57;;;7.47;;
66353;SDS011;53150;48.296;16.452;2023-02-23T02:42:41;13.23;;;7.35;;
66353;SDS011;53150;48.296;16.452;2023-02-23T02:56:24;12.80;;;7.22;;
66353;SDS011;53150;48.296;16.452;2023-02-23T02:58:52;11.85;;;6.85;;
66353;SDS011;53150;48.296;16.452;2023-02-23T03:01:23;13.27;;;6.82;;
66353;SDS011;53150;48.296;16.452;2023-02-23T03:04:23;15.07;;;7.38;;
66353;SDS011;53150;48.296;16.452;2023-02-23T03:16:36;14.80;;;8.07;;
66353;SDS011;53150;48.296;16.452;2023-02-23T03:19:43;12.50;;;7.07;;
66353;SDS011;53150;48.296;16.452;2023-02-23T03:22:34;16.10;;;8.65;;
66353;SDS011;53150;48.296;16.452;2023-02-23T03:25:24;13.95;;;7.82;;
66353;SDS011;53150;48.296;16.452;2023-02-23T03:28:17;11.93;;;6.35;;
66353;SDS011;53150;48.296;16.452;2023-02-23T03:34:09;12.90;;;7.35;;
66353;SDS011;53150;48.296;16.452;2023-02-23T03:43:07;12.43;;;7.43;;
66353;SDS011;53150;48.296;16.452;2023-02-23T03:45:58;14.88;;;7.53;;
66353;SDS011;53150;48.296;16.452;2023-02-23T03:48:45;13.83;;;7.60;;
66353;SDS011;53150;48.296;16.452;2023-02-23T03:51:34;15.82;;;7.30;;
66353;SDS011;53150;48.296;16.452;2023-02-23T03:54:28;13.23;;;7.13;;
66353;SDS011;53150;48.296;16.452;2023-02-23T03:57:20;13.38;;;7.45;;
66353;SDS011;53150;48.296;16.452;2023-02-23T04:03:21;14.43;;;7.75;;
66353;SDS011;53150;48.296;16.452;2023-02-23T04:06:11;14.55;;;7.40;;
66353;SDS011;53150;48.296;16.452;2023-02-23T04:09:00;14.50;;;6.63;;
66353;SDS011;53150;48.296;16.452;2023-02-23T04:12:34;12.38;;;6.70;;
66353;SDS011;53150;48.296;16.452;2023-02-23T04:15:03;12.00;;;6.63;;
66353;SDS011;53150;48.296;16.452;2023-02-23T04:17:42;14.88;;;7.40;;
66353;SDS011;53150;48.296;16.452;2023-02-23T04:20:14;14.48;;;7.30;;
66353;SDS011;53150;48.296;16.452;2023-02-23T04:22:44;14.13;;;7.20;;
66353;SDS011;53150;48.296;16.452;2023-02-23T04:25:11;15.82;;;7.70;;
66353;SDS011;53150;48.296;16.452;2023-02-23T04:27:44;13.70;;;7.22;;
66353;SDS011;53150;48.296;16.452;2023-02-23T04:30:13;13.05;;;7.22;;
66353;SDS011;53150;48.296;16.452;2023-02-23T04:32:39;14.02;;;8.00;;
66353;SDS011;53150;48.296;16.452;2023-02-23T04:35:06;13.75;;;7.57;;
66353;SDS011;53150;48.296;16.452;2023-02-23T04:37:46;14.82;;;7.72;;
66353;SDS011;53150;48.296;16.452;2023-02-23T04:40:19;13.15;;;7.55;;
66353;SDS011;53150;48.296;16.452;2023-02-23T04:43:03;14.07;;;7.78;;
66353;SDS011;53150;48.296;16.452;2023-02-23T04:45:35;14.52;;;7.75;;
66353;SDS011;53150;48.296;16.452;2023-02-23T04:48:01;14.23;;;7.53;;
66353;SDS011;53150;48.296;16.452;2023-02-23T04:50:28;14.40;;;8.35;;
66353;SDS011;53150;48.296;16.452;2023-02-23T04:53:00;15.30;;;8.15;;
66353;SDS011;53150;48.296;16.452;2023-02-23T04:55:32;14.70;;;8.00;;
66353;SDS011;53150;48.296;16.452;2023-02-23T05:03:57;12.57;;;7.35;;
66353;SDS011;53150;48.296;16.452;2023-02-23T05:06:30;13.70;;;8.02;;
66353;SDS011;53150;48.296;16.452;2023-02-23T05:08:59;15.73;;;8.52;;
66353;SDS011;53150;48.296;16.452;2023-02-23T05:11:28;18.65;;;9.05;;
66353;SDS011;53150;48.296;16.452;2023-02-23T05:13:57;15.00;;;8.52;;
66353;SDS011;53150;48.296;16.452;2023-02-23T05:25:08;13.95;;;7.78;;
66353;SDS011;53150;48.296;16.452;2023-02-23T05:28:11;15.73;;;8.82;;
66353;SDS011;53150;48.296;16.452;2023-02-23T05:31:03;18.83;;;9.00;;
66353;SDS011;53150;48.296;16.452;2023-02-23T05:33:34;16.75;;;8.32;;
66353;SDS011;53150;48.296;16.452;2023-02-23T05:36:10;15.00;;;8.27;;
66353;SDS011;53150;48.296;16.452;2023-02-23T05:38:37;16.52;;;9.32;;
66353;SDS011;53150;48.296;16.452;2023-02-23T05:41:07;17.23;;;8.88;;
66353;SDS011;53150;48.296;16.452;2023-02-23T05:43:43;16.67;;;9.05;;
66353;SDS011;53150;48.296;16.452;2023-02-23T05:46:13;15.75;;;8.45;;
66353;SDS011;53150;48.296;16.452;2023-02-23T05:48:49;17.75;;;9.48;;
66353;SDS011;53150;48.296;16.452;2023-02-23T05:51:23;17.83;;;8.63;;
66353;SDS011;53150;48.296;16.452;2023-02-23T05:53:51;15.55;;;8.88;;
66353;SDS011;53150;48.296;16.452;2023-02-23T05:56:19;15.65;;;8.75;;
66353;SDS011;53150;48.296;16.452;2023-02-23T05:58:52;15.73;;;9.27;;
66353;SDS011;53150;48.296;16.452;2023-02-23T06:01:27;18.70;;;9.75;;
66353;SDS011;53150;48.296;16.452;2023-02-23T06:04:02;18.88;;;10.40;;
66353;SDS011;53150;48.296;16.452;2023-02-23T06:06:41;18.27;;;9.25;;
66353;SDS011;53150;48.296;16.452;2023-02-23T06:09:12;19.20;;;9.85;;
66353;SDS011;53150;48.296;16.452;2023-02-23T06:11:39;20.17;;;10.40;;
66353;SDS011;53150;48.296;16.452;2023-02-23T06:14:21;16.60;;;10.75;;
66353;SDS011;53150;48.296;16.452;2023-02-23T06:17:09;20.25;;;11.40;;
66353;SDS011;53150;48.296;16.452;2023-02-23T06:19:37;17.35;;;9.55;;
66353;SDS011;53150;48.296;16.452;2023-02-23T06:22:09;20.27;;;10.65;;
66353;SDS011;53150;48.296;16.452;2023-02-23T06:24:36;16.20;;;10.52;;
66353;SDS011;53150;48.296;16.452;2023-02-23T06:27:02;17.23;;;10.25;;
66353;SDS011;53150;48.296;16.452;2023-02-23T06:29:29;17.83;;;9.80;;
66353;SDS011;53150;48.296;16.452;2023-02-23T06:31:56;16.20;;;10.02;;
66353;SDS011;53150;48.296;16.452;2023-02-23T06:34:22;14.10;;;8.30;;
66353;SDS011;53150;48.296;16.452;2023-02-23T06:36:51;17.05;;;9.38;;
66353;SDS011;53150;48.296;16.452;2023-02-23T06:39:19;13.68;;;8.20;;
66353;SDS011;53150;48.296;16.452;2023-02-23T06:41:46;15.80;;;9.15;;
66353;SDS011;53150;48.296;16.452;2023-02-23T06:44:19;13.68;;;7.78;;
66353;SDS011;53150;48.296;16.452;2023-02-23T06:46:49;16.58;;;8.88;;
66353;SDS011;53150;48.296;16.452;2023-02-23T06:49:22;14.02;;;8.13;;
66353;SDS011;53150;48.296;16.452;2023-02-23T06:51:50;16.40;;;8.63;;
66353;SDS011;53150;48.296;16.452;2023-02-23T06:54:17;17.02;;;9.35;;
66353;SDS011;53150;48.296;16.452;2023-02-23T06:56:43;14.18;;;8.75;;
66353;SDS011;53150;48.296;16.452;2023-02-23T06:59:20;18.77;;;9.60;;
66353;SDS011;53150;48.296;16.452;2023-02-23T07:01:50;19.08;;;10.40;;
66353;SDS011;53150;48.296;16.452;2023-02-23T07:04:26;20.92;;;11.57;;
66353;SDS011;53150;48.296;16.452;2023-02-23T07:06:53;21.98;;;12.27;;
66353;SDS011;53150;48.296;16.452;2023-02-23T07:09:22;20.25;;;12.00;;
66353;SDS011;53150;48.296;16.452;2023-02-23T07:11:56;19.63;;;11.20;;
66353;SDS011;53150;48.296;16.452;2023-02-23T07:14:24;22.27;;;13.90;;
66353;SDS011;53150;48.296;16.452;2023-02-23T07:16:51;26.10;;;12.13;;
66353;SDS011;53150;48.296;16.452;2023-02-23T07:19:21;20.40;;;11.95;;
66353;SDS011;53150;48.296;16.452;2023-02-23T07:21:49;22.08;;;13.32;;
66353;SDS011;53150;48.296;16.452;2023-02-23T07:24:18;24.80;;;12.98;;
66353;SDS011;53150;48.296;16.452;2023-02-23T07:26:47;24.50;;;13.57;;
66353;SDS011;53150;48.296;16.452;2023-02-23T07:29:17;29.70;;;14.82;;
66353;SDS011;53150;48.296;16.452;2023-02-23T07:31:44;27.05;;;14.32;;
66353;SDS011;53150;48.296;16.452;2023-02-23T07:34:12;24.77;;;15.25;;
66353;SDS011;53150;48.296;16.452;2023-02-23T07:36:39;28.50;;;16.50;;
66353;SDS011;53150;48.296;16.452;2023-02-23T07:39:05;24.58;;;15.40;;
66353;SDS011;53150;48.296;16.452;2023-02-23T07:41:31;28.08;;;15.32;;
66353;SDS011;53150;48.296;16.452;2023-02-23T07:44:00;24.67;;;14.27;;
66353;SDS011;53150;48.296;16.452;2023-02-23T07:49:23;25.63;;;14.98;;
66353;SDS011;53150;48.296;16.452;2023-02-23T07:51:55;23.50;;;15.40;;
66353;SDS011;53150;48.296;16.452;2023-02-23T07:54:21;24.45;;;15.18;;
66353;SDS011;53150;48.296;16.452;2023-02-23T07:56:50;31.00;;;17.65;;
66353;SDS011;53150;48.296;16.452;2023-02-23T07:59:32;29.15;;;18.10;;
66353;SDS011;53150;48.296;16.452;2023-02-23T08:02:03;29.13;;;16.70;;
66353;SDS011;53150;48.296;16.452;2023-02-23T08:04:34;25.52;;;14.73;;
66353;SDS011;53150;48.296;16.452;2023-02-23T08:07:00;26.52;;;15.43;;
66353;SDS011;53150;48.296;16.452;2023-02-23T08:09:29;24.42;;;14.85;;
66353;SDS011;53150;48.296;16.452;2023-02-23T08:11:57;28.08;;;15.25;;
66353;SDS011;53150;48.296;16.452;2023-02-23T08:14:34;24.77;;;15.43;;
66353;SDS011;53150;48.296;16.452;2023-02-23T08:17:01;28.90;;;15.95;;
66353;SDS011;53150;48.296;16.452;2023-02-23T08:22:53;29.38;;;18.20;;
66353;SDS011;53150;48.296;16.452;2023-02-23T08:25:22;27.52;;;15.68;;
66353;SDS011;53150;48.296;16.452;2023-02-23T08:27:52;26.47;;;14.33;;
66353;SDS011;53150;48.296;16.452;2023-02-23T08:30:31;28.25;;;16.50;;
66353;SDS011;53150;48.296;16.452;2023-02-23T08:33:08;32.05;;;15.93;;
66353;SDS011;53150;48.296;16.452;2023-02-23T08:35:34;28.13;;;15.40;;
66353;SDS011;53150;48.296;16.452;2023-02-23T08:38:01;22.77;;;13.57;;
66353;SDS011;53150;48.296;16.452;2023-02-23T08:40:27;24.77;;;14.52;;
66353;SDS011;53150;48.296;16.452;2023-02-23T08:45:42;23.42;;;13.73;;
66353;SDS011;53150;48.296;16.452;2023-02-23T08:48:11;24.15;;;14.60;;
66353;SDS011;53150;48.296;16.452;2023-02-23T08:50:40;21.33;;;13.82;;
66353;SDS011;53150;48.296;16.452;2023-02-23T08:53:19;25.35;;;14.73;;
66353;SDS011;53150;48.296;16.452;2023-02-23T08:55:53;22.85;;;13.80;;
66353;SDS011;53150;48.296;16.452;2023-02-23T08:58:36;23.45;;;13.65;;
66353;SDS011;53150;48.296;16.452;2023-02-23T09:01:04;23.25;;;14.60;;
66353;SDS011;53150;48.296;16.452;2023-02-23T09:03:35;22.30;;;13.68;;
66353;SDS011;53150;48.296;16.452;2023-02-23T09:06:12;19.77;;;12.52;;
66353;SDS011;53150;48.296;16.452;2023-02-23T09:08:40;19.42;;;13.27;;
66353;SDS011;53150;48.296;16.452;2023-02-23T09:11:10;25.20;;;13.18;;
66353;SDS011;53150;48.296;16.452;2023-02-23T09:13:37;22.55;;;13.75;;
66353;SDS011;53150;48.296;16.452;2023-02-23T09:16:12;22.25;;;13.98;;
66353;SDS011;53150;48.296;16.452;2023-02-23T09:18:46;19.63;;;12.02;;
66353;SDS011;53150;48.296;16.452;2023-02-23T09:21:15;26.23;;;14.55;;
66353;SDS011;53150;48.296;16.452;2023-02-23T09:23:50;31.25;;;17.27;;
66353;SDS011;53150;48.296;16.452;2023-02-23T09:26:21;24.15;;;13.02;;
66353;SDS011;53150;48.296;16.452;2023-02-23T09:28:49;24.98;;;15.18;;
66353;SDS011;53150;48.296;16.452;2023-02-23T09:31:17;20.55;;;12.45;;
66353;SDS011;53150;48.296;16.452;2023-02-23T09:33:48;20.88;;;13.18;;
66353;SDS011;53150;48.296;16.452;2023-02-23T09:36:16;22.83;;;13.43;;
66353;SDS011;53150;48.296;16.452;2023-02-23T09:38:56;19.75;;;12.23;;
66353;SDS011;53150;48.296;16.452;2023-02-23T09:44:01;22.42;;;12.88;;
66353;SDS011;53150;48.296;16.452;2023-02-23T09:46:44;19.60;;;12.45;;
66353;SDS011;53150;48.296;16.452;2023-02-23T09:49:22;19.90;;;12.20;;
66353;SDS011;53150;48.296;16.452;2023-02-23T09:54:31;21.67;;;12.35;;
66353;SDS011;53150;48.296;16.452;2023-02-23T09:57:03;18.48;;;12.02;;
66353;SDS011;53150;48.296;16.452;2023-02-23T09:59:34;20.83;;;12.38;;
66353;SDS011;53150;48.296;16.452;2023-02-23T10:02:22;20.25;;;12.98;;
66353;SDS011;53150;48.296;16.452;2023-02-23T10:04:57;18.58;;;12.65;;
66353;SDS011;53150;48.296;16.452;2023-02-23T10:08:00;21.30;;;12.30;;
66353;SDS011;53150;48.296;16.452;2023-02-23T10:10:43;21.77;;;12.57;;
66353;SDS011;53150;48.296;16.452;2023-02-23T10:13:15;26.27;;;13.65;;
66353;SDS011;53150;48.296;16.452;2023-02-23T10:15:48;20.52;;;12.38;;
66353;SDS011;53150;48.296;16.452;2023-02-23T10:18:39;17.33;;;11.43;;
66353;SDS011;53150;48.296;16.452;2023-02-23T10:21:35;19.02;;;11.32;;
66353;SDS011;53150;48.296;16.452;2023-02-23T10:26:52;20.40;;;11.95;;
66353;SDS011;53150;48.296;16.452;2023-02-23T10:32:04;18.17;;;11.55;;
66353;SDS011;53150;48.296;16.452;2023-02-23T10:34:36;19.73;;;11.50;;
66353;SDS011;53150;48.296;16.452;2023-02-23T10:39:50;21.50;;;12.98;;
66353;SDS011;53150;48.296;16.452;2023-02-23T10:42:21;23.00;;;12.25;;
66353;SDS011;53150;48.296;16.452;2023-02-23T10:44:50;21.25;;;12.95;;
66353;SDS011;53150;48.296;16.452;2023-02-23T10:47:22;19.13;;;12.95;;
66353;SDS011;53150;48.296;16.452;2023-02-23T10:49:50;18.52;;;11.80;;
66353;SDS011;53150;48.296;16.452;2023-02-23T10:55:03;19.65;;;12.85;;
66353;SDS011;53150;48.296;16.452;2023-02-23T10:57:32;20.67;;;11.77;;
66353;SDS011;53150;48.296;16.452;2023-02-23T11:02:53;19.77;;;12.80;;
66353;SDS011;53150;48.296;16.452;2023-02-23T11:10:38;20.50;;;13.10;;
66353;SDS011;53150;48.296;16.452;2023-02-23T11:13:20;20.48;;;13.20;;
66353;SDS011;53150;48.296;16.452;2023-02-23T11:21:33;20.58;;;12.57;;
66353;SDS011;53150;48.296;16.452;2023-02-23T11:24:12;21.50;;;13.45;;
66353;SDS011;53150;48.296;16.452;2023-02-23T11:26:43;23.73;;;14.82;;
66353;SDS011;53150;48.296;16.452;2023-02-23T11:31:53;19.83;;;12.70;;
66353;SDS011;53150;48.296;16.452;2023-02-23T11:34:35;23.95;;;13.43;;
66353;SDS011;53150;48.296;16.452;2023-02-23T11:37:21;20.95;;;13.48;;
66353;SDS011;53150;48.296;16.452;2023-02-23T11:40:01;19.98;;;13.45;;
66353;SDS011;53150;48.296;16.452;2023-02-23T11:42:30;23.38;;;14.57;;
66353;SDS011;53150;48.296;16.452;2023-02-23T11:45:16;26.02;;;15.60;;
66353;SDS011;53150;48.296;16.452;2023-02-23T11:47:47;22.95;;;13.43;;
66353;SDS011;53150;48.296;16.452;2023-02-23T11:50:46;21.98;;;13.10;;
66353;SDS011;53150;48.296;16.452;2023-02-23T11:53:15;22.70;;;14.38;;
66353;SDS011;53150;48.296;16.452;2023-02-23T11:55:51;22.10;;;14.57;;
66353;SDS011;53150;48.296;16.452;2023-02-23T12:01:17;25.80;;;15.60;;
66353;SDS011;53150;48.296;16.452;2023-02-23T12:03:52;21.90;;;14.73;;
66353;SDS011;53150;48.296;16.452;2023-02-23T12:06:30;25.73;;;14.18;;
66353;SDS011;53150;48.296;16.452;2023-02-23T12:09:02;22.63;;;13.43;;
66353;SDS011;53150;48.296;16.452;2023-02-23T12:11:32;21.48;;;14.52;;
66353;SDS011;53150;48.296;16.452;2023-02-23T12:14:11;22.65;;;13.90;;
66353;SDS011;53150;48.296;16.452;2023-02-23T12:16:51;26.33;;;14.25;;
66353;SDS011;53150;48.296;16.452;2023-02-23T12:19:44;21.42;;;13.68;;
66353;SDS011;53150;48.296;16.452;2023-02-23T12:22:17;19.90;;;12.80;;
66353;SDS011;53150;48.296;16.452;2023-02-23T12:27:14;21.67;;;13.55;;
66353;SDS011;53150;48.296;16.452;2023-02-23T12:35:12;23.15;;;13.75;;
66353;SDS011;53150;48.296;16.452;2023-02-23T12:40:43;22.77;;;12.85;;
66353;SDS011;53150;48.296;16.452;2023-02-23T12:43:13;22.40;;;14.05;;
66353;SDS011;53150;48.296;16.452;2023-02-23T12:51:05;23.27;;;13.50;;
66353;SDS011;53150;48.296;16.452;2023-02-23T12:53:46;21.48;;;13.30;;
66353;SDS011;53150;48.296;16.452;2023-02-23T12:56:16;21.27;;;12.50;;
66353;SDS011;53150;48.296;16.452;2023-02-23T13:01:33;20.70;;;12.05;;
66353;SDS011;53150;48.296;16.452;2023-02-23T13:07:02;23.67;;;13.00;;
66353;SDS011;53150;48.296;16.452;2023-02-23T13:15:41;22.77;;;14.05;;
66353;SDS011;53150;48.296;16.452;2023-02-23T13:18:22;22.52;;;13.82;;
66353;SDS011;53150;48.296;16.452;2023-02-23T13:21:00;22.20;;;14.50;;
66353;SDS011;53150;48.296;16.452;2023-02-23T13:23:47;23.85;;;14.70;;
66353;SDS011;53150;48.296;16.452;2023-02-23T13:26:32;21.67;;;14.77;;
66353;SDS011;53150;48.296;16.452;2023-02-23T13:29:06;20.33;;;13.52;;
66353;SDS011;53150;48.296;16.452;2023-02-23T13:36:53;18.17;;;12.15;;
66353;SDS011;53150;48.296;16.452;2023-02-23T13:44:33;19.23;;;12.50;;
66353;SDS011;53150;48.296;16.452;2023-02-23T13:50:06;17.75;;;11.18;;
66353;SDS011;53150;48.296;16.452;2023-02-23T13:52:54;18.80;;;11.77;;
66353;SDS011;53150;48.296;16.452;2023-02-23T13:58:11;19.13;;;11.70;;
66353;SDS011;53150;48.296;16.452;2023-02-23T14:01:02;18.73;;;11.73;;
66353;SDS011;53150;48.296;16.452;2023-02-23T14:03:31;22.40;;;12.63;;
66353;SDS011;53150;48.296;16.452;2023-02-23T14:06:01;19.23;;;12.23;;
66353;SDS011;53150;48.296;16.452;2023-02-23T14:08:45;20.98;;;12.57;;
66353;SDS011;53150;48.296;16.452;2023-02-23T14:14:03;20.48;;;12.88;;
66353;SDS011;53150;48.296;16.452;2023-02-23T14:16:32;20.58;;;11.80;;
66353;SDS011;53150;48.296;16.452;2023-02-23T14:22:03;19.40;;;11.88;;
66353;SDS011;53150;48.296;16.452;2023-02-23T14:24:35;21.98;;;12.38;;
66353;SDS011;53150;48.296;16.452;2023-02-23T14:27:14;18.20;;;10.93;;
66353;SDS011;53150;48.296;16.452;2023-02-23T14:32:41;18.45;;;11.38;;
66353;SDS011;53150;48.296;16.452;2023-02-23T14:38:00;19.95;;;11.05;;
66353;SDS011;53150;48.296;16.452;2023-02-23T14:40:30;20.92;;;12.70;;
66353;SDS011;53150;48.296;16.452;2023-02-23T14:43:02;18.40;;;11.02;;
66353;SDS011;53150;48.296;16.452;2023-02-23T14:45:36;16.05;;;10.80;;
66353;SDS011;53150;48.296;16.452;2023-02-23T14:48:06;17.95;;;10.85;;
66353;SDS011;53150;48.296;16.452;2023-02-23T14:50:36;16.48;;;10.18;;
66353;SDS011;53150;48.296;16.452;2023-02-23T14:53:12;21.13;;;11.45;;
66353;SDS011;53150;48.296;16.452;2023-02-23T14:55:41;16.60;;;11.48;;
66353;SDS011;53150;48.296;16.452;2023-02-23T15:00:56;17.63;;;10.65;;
66353;SDS011;53150;48.296;16.452;2023-02-23T15:03:26;16.17;;;10.55;;
66353;SDS011;53150;48.296;16.452;2023-02-23T15:05:58;20.80;;;12.05;;
66353;SDS011;53150;48.296;16.452;2023-02-23T15:08:34;19.45;;;9.55;;
66353;SDS011;53150;48.296;16.452;2023-02-23T15:11:09;16.30;;;10.45;;
66353;SDS011;53150;48.296;16.452;2023-02-23T15:13:47;18.65;;;11.02;;
66353;SDS011;53150;48.296;16.452;2023-02-23T15:19:22;18.73;;;10.88;;
66353;SDS011;53150;48.296;16.452;2023-02-23T15:21:57;15.60;;;9.38;;
66353;SDS011;53150;48.296;16.452;2023-02-23T15:24:29;18.60;;;10.48;;
66353;SDS011;53150;48.296;16.452;2023-02-23T15:26:56;16.50;;;11.23;;
66353;SDS011;53150;48.296;16.452;2023-02-23T15:29:37;16.50;;;10.38;;
66353;SDS011;53150;48.296;16.452;2023-02-23T15:32:19;18.65;;;10.88;;
66353;SDS011;53150;48.296;16.452;2023-02-23T15:34:51;18.67;;;11.45;;
66353;SDS011;53150;48.296;16.452;2023-02-23T15:37:32;20.13;;;11.68;;
66353;SDS011;53150;48.296;16.452;2023-02-23T15:40:04;23.17;;;12.63;;
66353;SDS011;53150;48.296;16.452;2023-02-23T15:42:34;16.67;;;11.13;;
66353;SDS011;53150;48.296;16.452;2023-02-23T15:48:01;19.95;;;11.18;;
66353;SDS011;53150;48.296;16.452;2023-02-23T15:50:38;17.80;;;11.60;;
66353;SDS011;53150;48.296;16.452;2023-02-23T15:53:06;21.27;;;11.70;;
66353;SDS011;53150;48.296;16.452;2023-02-23T15:55:45;20.20;;;11.73;;
66353;SDS011;53150;48.296;16.452;2023-02-23T16:01:21;19.77;;;11.85;;
66353;SDS011;53150;48.296;16.452;2023-02-23T16:06:32;18.80;;;12.75;;
66353;SDS011;53150;48.296;16.452;2023-02-23T16:09:21;20.30;;;12.23;;
66353;SDS011;53150;48.296;16.452;2023-02-23T16:11:51;20.02;;;12.30;;
66353;SDS011;53150;48.296;16.452;2023-02-23T16:14:24;22.42;;;13.23;;
66353;SDS011;53150;48.296;16.452;2023-02-23T16:16:59;22.35;;;12.85;;
66353;SDS011;53150;48.296;16.452;2023-02-23T16:19:30;19.38;;;12.20;;
66353;SDS011;53150;48.296;16.452;2023-02-23T16:22:01;23.58;;;12.63;;
66353;SDS011;53150;48.296;16.452;2023-02-23T16:24:30;20.52;;;12.85;;
66353;SDS011;53150;48.296;16.452;2023-02-23T16:26:57;18.23;;;11.82;;
66353;SDS011;53150;48.296;16.452;2023-02-23T16:29:30;21.67;;;13.38;;
66353;SDS011;53150;48.296;16.452;2023-02-23T16:32:07;22.40;;;13.00;;
66353;SDS011;53150;48.296;16.452;2023-02-23T16:34:43;21.25;;;12.85;;
66353;SDS011;53150;48.296;16.452;2023-02-23T16:37:47;20.23;;;11.52;;
66353;SDS011;53150;48.296;16.452;2023-02-23T16:40:12;22.13;;;12.82;;
66353;SDS011;53150;48.296;16.452;2023-02-23T16:42:44;19.67;;;11.50;;
66353;SDS011;53150;48.296;16.452;2023-02-23T16:45:14;22.73;;;12.25;;
66353;SDS011;53150;48.296;16.452;2023-02-23T16:47:44;20.92;;;12.75;;
66353;SDS011;53150;48.296;16.452;2023-02-23T16:53:04;23.05;;;13.65;;
66353;SDS011;53150;48.296;16.452;2023-02-23T16:55:59;22.38;;;13.75;;
66353;SDS011;53150;48.296;16.452;2023-02-23T16:58:25;22.35;;;13.75;;
66353;SDS011;53150;48.296;16.452;2023-02-23T17:00:55;21.80;;;12.30;;
66353;SDS011;53150;48.296;16.452;2023-02-23T17:03:37;21.90;;;11.93;;
66353;SDS011;53150;48.296;16.452;2023-02-23T17:06:06;21.30;;;11.73;;
66353;SDS011;53150;48.296;16.452;2023-02-23T17:08:34;24.73;;;12.98;;
66353;SDS011;53150;48.296;16.452;2023-02-23T17:11:04;23.45;;;12.82;;
66353;SDS011;53150;48.296;16.452;2023-02-23T17:13:37;22.77;;;11.93;;
66353;SDS011;53150;48.296;16.452;2023-02-23T17:19:07;20.60;;;11.80;;
66353;SDS011;53150;48.296;16.452;2023-02-23T17:21:40;20.98;;;11.43;;
66353;SDS011;53150;48.296;16.452;2023-02-23T17:24:14;20.38;;;12.10;;
66353;SDS011;53150;48.296;16.452;2023-02-23T17:26:41;19.30;;;12.15;;
66353;SDS011;53150;48.296;16.452;2023-02-23T17:29:10;20.65;;;12.38;;
66353;SDS011;53150;48.296;16.452;2023-02-23T17:31:39;21.23;;;12.05;;
66353;SDS011;53150;48.296;16.452;2023-02-23T17:34:10;20.80;;;11.73;;
66353;SDS011;53150;48.296;16.452;2023-02-23T17:36:37;18.75;;;12.07;;
66353;SDS011;53150;48.296;16.452;2023-02-23T17:39:08;21.08;;;12.23;;
66353;SDS011;53150;48.296;16.452;2023-02-23T17:41:40;21.98;;;12.60;;
66353;SDS011;53150;48.296;16.452;2023-02-23T17:44:09;19.92;;;12.25;;
66353;SDS011;53150;48.296;16.452;2023-02-23T17:46:37;22.45;;;12.60;;
66353;SDS011;53150;48.296;16.452;2023-02-23T17:49:07;21.13;;;12.85;;
66353;SDS011;53150;48.296;16.452;2023-02-23T17:51:37;22.25;;;13.57;;
66353;SDS011;53150;48.296;16.452;2023-02-23T17:54:09;23.95;;;14.10;;
66353;SDS011;53150;48.296;16.452;2023-02-23T17:56:38;23.13;;;12.90;;
66353;SDS011;53150;48.296;16.452;2023-02-23T17:59:10;23.60;;;14.52;;
66353;SDS011;53150;48.296;16.452;2023-02-23T18:01:42;22.80;;;13.57;;
66353;SDS011;53150;48.296;16.452;2023-02-23T18:04:11;25.85;;;13.85;;
66353;SDS011;53150;48.296;16.452;2023-02-23T18:06:43;22.50;;;12.98;;
66353;SDS011;53150;48.296;16.452;2023-02-23T18:09:13;27.55;;;14.68;;
66353;SDS011;53150;48.296;16.452;2023-02-23T18:11:42;22.42;;;14.30;;
66353;SDS011;53150;48.296;16.452;2023-02-23T18:14:12;28.05;;;13.95;;
66353;SDS011;53150;48.296;16.452;2023-02-23T18:16:42;24.13;;;13.90;;